This is the latest recevied weather packets stored in our database for station/object KI7JYE. If no packets are shown the sender has not sent any weather packets the latest 10 day(s).
| Time | Temp. | Humidity | Pressure | Rain* | Wind** | Luminosity | Snow |
|---|---|---|---|---|---|---|---|
| 1778117322 | 20° C | 62% | 1018.8 hPa | 0 mm | - | 98 W/m² | - |
| 1778117018 | 20° C | 62% | 1018.5 hPa | 0 mm | - | 87 W/m² | - |
| 1778116715 | 20° C | 62% | 1018.4 hPa | 0 mm | - | 90 W/m² | - |
| 1778116412 | 20° C | 62% | 1018.5 hPa | 0 mm | - | 99 W/m² | - |
| 1778116106 | 20.56° C | 62% | 1018.7 hPa | 0 mm | - | 82 W/m² | - |
| 1778115802 | 20.56° C | 61% | 1018.7 hPa | 0 mm | - | 85 W/m² | - |
| 1778115500 | 20.56° C | 62% | 1018.6 hPa | 0 mm | - | 81 W/m² | - |
| 1778115196 | 21.11° C | 60% | 1018.5 hPa | 0 mm | - | 84 W/m² | - |
| 1778114893 | 21.11° C | 59% | 1018.5 hPa | 0 mm | - | 100 W/m² | - |
| 1778114590 | 21.67° C | 60% | 1018.3 hPa | 0 mm | - | 147 W/m² | - |
| 1778114287 | 21.67° C | 60% | 1018.3 hPa | 0 mm | - | 162 W/m² | - |
| 1778113982 | 22.22° C | 60% | 1018.2 hPa | 0 mm | - | 151 W/m² | - |
| 1778113678 | 22.22° C | 60% | 1018.4 hPa | 0 mm | - | 156 W/m² | - |
| 1778113374 | 22.22° C | 59% | 1018.3 hPa | 0 mm | - | 173 W/m² | - |
| 1778113071 | 22.22° C | 59% | 1018.5 hPa | 0 mm | - | 170 W/m² | - |
| 1778112769 | 22.78° C | 59% | 1018.1 hPa | 0 mm | - | 183 W/m² | - |
| 1778112465 | 22.22° C | 60% | 1018.2 hPa | 0 mm | - | 362 W/m² | - |
| 1778112161 | 22.78° C | 59% | 1018.4 hPa | 0 mm | - | 187 W/m² | - |
| 1778111858 | 23.33° C | 59% | 1018.2 hPa | 0 mm | - | 205 W/m² | - |
| 1778111553 | 23.33° C | 58% | 1018.3 hPa | 0 mm | - | 538 W/m² | - |
| 1778111250 | 22.78° C | 59% | 1018.2 hPa | 0 mm | - | 254 W/m² | - |
| 1778110947 | 21.67° C | 61% | 1018.2 hPa | 0 mm | - | 261 W/m² | - |
| 1778110645 | 21.67° C | 62% | 1018.1 hPa | 0 mm | - | 190 W/m² | - |
| 1778110341 | 21.67° C | 63% | 1018.4 hPa | 0 mm | - | 216 W/m² | - |
| 1778110038 | 22.78° C | 59% | 1018.3 hPa | 0 mm | - | 559 W/m² | - |
* Rain latest hour (hover to see other rain measurements)
** Current wind speed in m/s (hover to see current wind gust speed)